< < Back
Terminal Aerodrome Forecast


Current Version              Previous Versions:   1  2  3  4  5  6  7  8  9  

Terminal Aerodrome Forecast

279
FTUS42 KTAE 011020 AAB
TAFTLH
TAF AMD
KTLH 011020Z 0110/0206 21005KT P6SM -SHRA SCT015 BKN060
      TEMPO 0114/0118 22015G25KT 3SM TSRA SCT008 BKN025CB
     FM012000 21005KT P6SM SCT025 BKN250=

Latest METAR

593
SAUS80 KWBC 011800 RRJ
MTRTLH
METAR KTLH 011753Z 19008KT 10SM FEW020CB SCT080 BKN200 27/23 A3004 RMK
AO2 RAB1657E22 SLP170 CB NE-SE MOV NE P0021 60026 T02720228
10300 20250 58004 $


USA.gov is the U.S. government's official web portal to all federal, state and local government web resources and services.